Time;durP1;ratioP1;P1;durP2;ratioP2;P2;SDS_P1;SDS_P2;PMS_P1;PMS_P2;Temp;Humidity;BMP_temperature;BMP_pressure;BME280_temperature;BME280_humidity;BME280_pressure;Samples;Min_cycle;Max_cycle;Signal;HPM_P1;HPM_P2
2021/09/29 00:02:05;;;;;;;15.57;6.68;;;12.70;99.90;;;;;;5094837;28;20024;-66
2021/09/29 00:04:31;;;;;;;8.30;6.10;;;12.70;99.90;;;;;;5093705;28;20406;-66
2021/09/29 00:06:56;;;;;;;11.50;6.55;;;12.70;99.90;;;;;;5093365;28;20442;-66
2021/09/29 00:09:22;;;;;;;8.07;6.32;;;12.70;99.90;;;;;;5092755;28;20047;-66
2021/09/29 00:11:48;;;;;;;8.88;6.40;;;12.80;99.90;;;;;;5091684;28;20028;-66
2021/09/29 00:14:14;;;;;;;10.57;7.07;;;12.80;99.90;;;;;;5093978;28;20078;-66
2021/09/29 00:16:39;;;;;;;8.60;6.63;;;12.80;99.90;;;;;;5074878;28;20603;-66
2021/09/29 00:19:05;;;;;;;9.48;7.25;;;12.80;99.90;;;;;;5093536;28;20036;-66
2021/09/29 00:21:31;;;;;;;9.25;7.70;;;12.90;99.90;;;;;;5092447;28;20043;-66
2021/09/29 00:23:57;;;;;;;9.70;7.82;;;12.90;99.90;;;;;;5093170;28;20016;-66
2021/09/29 00:26:23;;;;;;;14.30;8.15;;;12.90;99.90;;;;;;5092496;28;20028;-66
2021/09/29 00:28:48;;;;;;;10.10;7.65;;;13.00;99.90;;;;;;5093005;28;20461;-66
2021/09/29 00:31:27;;;;;;;9.63;7.45;;;13.00;99.90;;;;;;5093402;28;20031;-66
2021/09/29 00:36:37;;;;;;;9.73;7.30;;;13.00;99.90;;;;;;5092184;28;20028;-67
2021/09/29 00:39:04;;;;;;;13.82;8.65;;;13.00;99.90;;;;;;5093248;28;20384;-66
2021/09/29 00:41:30;;;;;;;8.23;7.45;;;12.90;99.90;;;;;;5092067;28;20435;-66
2021/09/29 00:43:56;;;;;;;9.32;6.93;;;12.90;99.90;;;;;;5093245;28;20032;-67
2021/09/29 00:46:22;;;;;;;11.85;7.68;;;12.80;99.90;;;;;;5092543;28;20024;-66
2021/09/29 00:48:48;;;;;;;8.68;7.35;;;12.80;99.90;;;;;;5092646;28;20039;-66
2021/09/29 00:51:14;;;;;;;10.20;6.68;;;12.80;99.90;;;;;;5093238;28;20094;-67
2021/09/29 00:53:39;;;;;;;10.85;7.97;;;12.70;99.90;;;;;;5092030;28;20028;-66
2021/09/29 00:56:06;;;;;;;10.95;7.88;;;12.70;99.90;;;;;;5092664;28;20103;-67
2021/09/29 00:58:32;;;;;;;9.35;8.07;;;12.70;99.90;;;;;;5092318;28;20103;-66
2021/09/29 01:00:57;;;;;;;11.68;8.95;;;12.60;99.90;;;;;;5092789;28;20116;-66
2021/09/29 01:03:24;;;;;;;9.93;7.90;;;12.60;99.90;;;;;;5092353;28;20039;-66
2021/09/29 01:05:53;;;;;;;12.60;8.73;;;12.60;99.90;;;;;;5092861;28;20031;-66
2021/09/29 01:08:29;;;;;;;12.45;9.32;;;12.50;99.90;;;;;;5092582;28;20052;-66
2021/09/29 01:11:17;;;;;;;17.05;9.02;;;12.50;99.90;;;;;;5092545;28;20032;-66
2021/09/29 01:13:59;;;;;;;13.82;8.35;;;12.60;99.90;;;;;;5091411;28;20032;-66
2021/09/29 01:16:26;;;;;;;13.52;8.48;;;12.50;99.90;;;;;;5091941;28;20575;-66
2021/09/29 01:18:56;;;;;;;10.38;8.05;;;12.60;99.90;;;;;;5092378;28;20046;-66
2021/09/29 01:21:24;;;;;;;9.18;7.50;;;12.60;99.90;;;;;;5091811;28;20024;-66
2021/09/29 01:24:18;;;;;;;13.48;7.55;;;12.70;99.90;;;;;;5091900;28;20036;-66
2021/09/29 01:26:45;;;;;;;9.30;7.43;;;12.60;99.90;;;;;;5091906;28;20024;-67
2021/09/29 01:29:14;;;;;;;10.65;7.40;;;12.60;99.90;;;;;;5073607;28;20115;-66
2021/09/29 01:31:42;;;;;;;11.45;7.72;;;12.70;99.90;;;;;;5091442;28;20028;-66
2021/09/29 01:34:09;;;;;;;9.38;7.45;;;12.60;99.90;;;;;;5091726;28;20019;-66
2021/09/29 01:36:36;;;;;;;11.85;7.57;;;12.60;99.90;;;;;;5090754;28;20640;-66
2021/09/29 01:39:04;;;;;;;11.25;7.32;;;12.60;99.90;;;;;;5092069;28;20150;-66
2021/09/29 01:41:31;;;;;;;9.73;7.18;;;12.60;99.90;;;;;;5091203;28;20497;-66
2021/09/29 01:43:58;;;;;;;9.73;6.70;;;12.60;99.90;;;;;;5092062;28;20028;-66
2021/09/29 01:46:28;;;;;;;9.88;6.43;;;12.60;99.90;;;;;;5090925;28;20032;-66
2021/09/29 01:49:10;;;;;;;9.50;6.65;;;12.60;99.90;;;;;;5073514;28;20496;-66
2021/09/29 01:51:40;;;;;;;9.75;6.75;;;12.60;99.90;;;;;;5091210;28;20473;-66
2021/09/29 01:54:09;;;;;;;9.73;6.40;;;12.60;99.90;;;;;;5091591;28;20059;-65
2021/09/29 01:56:35;;;;;;;8.70;7.20;;;12.60;99.90;;;;;;5091071;28;20107;-65
2021/09/29 01:59:05;;;;;;;9.25;6.28;;;12.60;99.90;;;;;;5091995;28;20169;-66
2021/09/29 02:01:38;;;;;;;8.33;7.10;;;12.70;99.90;;;;;;5091362;28;20025;-65
2021/09/29 02:04:05;;;;;;;8.05;6.47;;;12.70;99.90;;;;;;5091742;28;20664;-66
2021/09/29 02:06:55;;;;;;;11.60;7.35;;;12.70;99.90;;;;;;5091025;28;20381;-66
2021/09/29 02:09:23;;;;;;;12.97;7.03;;;12.80;99.90;;;;;;5085607;28;20035;-66
2021/09/29 02:11:49;;;;;;;11.70;7.07;;;12.80;99.90;;;;;;5090929;28;20081;-65
2021/09/29 02:14:18;;;;;;;9.30;6.63;;;12.90;99.90;;;;;;5091731;28;20036;-66
2021/09/29 02:16:44;;;;;;;9.77;7.10;;;12.90;99.90;;;;;;5090839;28;20039;-64
2021/09/29 02:19:10;;;;;;;9.95;6.72;;;13.00;99.90;;;;;;5091301;28;20374;-65
2021/09/29 02:21:40;;;;;;;8.23;5.70;;;13.00;99.90;;;;;;5090537;28;20032;-67
2021/09/29 02:24:07;;;;;;;8.48;6.75;;;13.00;99.90;;;;;;5091355;28;20028;-67
2021/09/29 02:26:33;;;;;;;8.13;6.05;;;13.10;99.90;;;;;;5090231;28;20033;-67
2021/09/29 02:28:59;;;;;;;9.73;7.22;;;13.10;99.90;;;;;;5090827;28;20028;-65
2021/09/29 02:31:27;;;;;;;10.73;6.93;;;13.10;99.90;;;;;;5091325;28;20028;-65
2021/09/29 02:33:53;;;;;;;11.95;7.32;;;13.10;99.90;;;;;;5090843;28;20067;-65
2021/09/29 02:36:19;;;;;;;10.02;6.70;;;13.10;99.90;;;;;;5093953;28;20124;-65
2021/09/29 02:38:45;;;;;;;9.77;7.10;;;13.10;99.90;;;;;;5094454;28;20108;-65
2021/09/29 02:41:12;;;;;;;9.57;7.07;;;13.20;99.90;;;;;;5095355;28;20426;-65
2021/09/29 02:43:38;;;;;;;10.90;6.53;;;13.10;99.90;;;;;;5094543;28;20029;-65
2021/09/29 02:46:04;;;;;;;9.18;6.25;;;13.20;99.90;;;;;;5094983;28;20059;-66
2021/09/29 02:48:30;;;;;;;9.38;6.18;;;13.10;99.90;;;;;;5094200;28;20067;-66
2021/09/29 02:50:56;;;;;;;9.02;6.78;;;13.10;99.90;;;;;;5095710;28;20060;-65
2021/09/29 02:53:22;;;;;;;7.55;5.85;;;13.20;99.90;;;;;;5094260;28;20078;-66
2021/09/29 02:55:48;;;;;;;10.80;6.57;;;13.20;99.90;;;;;;5094327;28;20111;-66
2021/09/29 02:58:14;;;;;;;10.40;6.53;;;13.20;99.90;;;;;;5094346;28;20392;-66
2021/09/29 03:00:39;;;;;;;8.60;5.60;;;13.30;99.90;;;;;;5094052;28;20038;-65
2021/09/29 03:03:08;;;;;;;7.30;5.22;;;13.30;99.90;;;;;;5095497;28;20503;-65
2021/09/29 03:05:34;;;;;;;9.95;5.75;;;13.40;99.90;;;;;;5094539;28;20063;-66
2021/09/29 03:07:59;;;;;;;9.32;5.75;;;13.40;99.90;;;;;;5094537;28;20060;-66
2021/09/29 03:10:31;;;;;;;7.75;5.68;;;13.40;99.90;;;;;;5094289;28;20481;-65
2021/09/29 03:12:57;;;;;;;8.57;5.47;;;13.40;99.90;;;;;;5095233;28;20115;-66
2021/09/29 03:15:23;;;;;;;9.68;5.68;;;13.40;99.90;;;;;;5095290;28;20499;-65
2021/09/29 03:17:48;;;;;;;9.02;5.57;;;13.40;99.90;;;;;;5093375;28;20028;-66
2021/09/29 03:20:14;;;;;;;7.47;5.30;;;13.40;99.90;;;;;;5094543;28;20393;-66
2021/09/29 03:22:40;;;;;;;10.77;5.90;;;13.30;99.90;;;;;;5094172;28;20389;-65
2021/09/29 03:25:06;;;;;;;8.43;5.65;;;13.20;99.90;;;;;;5094574;28;20376;-66
2021/09/29 03:27:32;;;;;;;7.07;5.40;;;13.20;99.90;;;;;;5093536;28;20040;-65
2021/09/29 03:29:58;;;;;;;9.85;6.00;;;13.20;99.90;;;;;;5094064;28;20111;-65
2021/09/29 03:32:23;;;;;;;8.43;5.57;;;13.20;99.90;;;;;;5094415;28;20060;-66
2021/09/29 03:34:49;;;;;;;8.55;5.07;;;13.20;99.90;;;;;;5093541;28;20545;-65
2021/09/29 03:37:15;;;;;;;8.43;6.05;;;13.20;99.90;;;;;;5094148;28;20489;-66
2021/09/29 03:39:40;;;;;;;10.48;5.32;;;13.20;99.90;;;;;;5093654;28;20574;-65
2021/09/29 03:42:06;;;;;;;11.65;5.70;;;13.20;99.90;;;;;;5094244;28;20115;-65
2021/09/29 03:44:32;;;;;;;8.52;5.35;;;13.20;99.90;;;;;;5093477;28;20108;-65
2021/09/29 03:46:58;;;;;;;6.93;5.05;;;13.10;99.90;;;;;;5094154;28;20081;-65
2021/09/29 03:49:23;;;;;;;7.05;5.45;;;13.10;99.90;;;;;;5093851;28;20032;-66
2021/09/29 03:51:49;;;;;;;9.57;5.38;;;13.00;99.90;;;;;;5093232;28;20032;-65
2021/09/29 03:54:15;;;;;;;7.60;5.57;;;13.00;99.90;;;;;;5093844;28;20419;-65
2021/09/29 03:56:40;;;;;;;8.23;5.10;;;13.00;99.90;;;;;;5092859;28;20024;-65
2021/09/29 03:59:06;;;;;;;7.45;4.90;;;13.00;99.90;;;;;;5093498;28;20509;-66
2021/09/29 04:01:31;;;;;;;8.18;5.57;;;13.00;99.90;;;;;;5093056;28;20063;-65
2021/09/29 04:03:57;;;;;;;10.18;6.75;;;13.10;99.90;;;;;;5093415;28;20386;-66
2021/09/29 04:06:23;;;;;;;8.88;5.70;;;13.10;99.90;;;;;;5093600;28;20028;-66
2021/09/29 04:08:49;;;;;;;6.53;5.10;;;13.20;99.90;;;;;;5093200;28;20465;-66
2021/09/29 04:11:14;;;;;;;9.80;5.22;;;13.30;99.90;;;;;;5093528;28;20114;-66
2021/09/29 04:13:40;;;;;;;10.10;5.10;;;13.30;99.90;;;;;;5093011;28;20469;-66
2021/09/29 04:16:06;;;;;;;6.63;5.03;;;13.30;99.90;;;;;;5093576;28;20032;-66
2021/09/29 04:18:32;;;;;;;7.13;4.60;;;13.40;99.90;;;;;;5092034;28;20051;-66
2021/09/29 04:20:58;;;;;;;7.53;5.22;;;13.40;99.90;;;;;;5092651;28;20027;-66
2021/09/29 04:23:24;;;;;;;8.05;4.47;;;13.40;99.90;;;;;;5092518;28;20016;-66
2021/09/29 04:25:52;;;;;;;9.13;4.90;;;13.30;99.90;;;;;;5090611;28;20066;-66
2021/09/29 04:28:19;;;;;;;7.20;4.40;;;13.30;99.90;;;;;;5091698;28;20028;-66
2021/09/29 04:30:45;;;;;;;5.30;4.13;;;13.30;99.90;;;;;;5091260;28;20063;-67
2021/09/29 04:33:11;;;;;;;6.43;4.63;;;13.20;99.90;;;;;;5092237;28;20035;-66
2021/09/29 04:35:40;;;;;;;7.63;4.25;;;13.10;99.90;;;;;;5091059;28;20024;-66
2021/09/29 04:38:07;;;;;;;5.28;3.80;;;13.10;99.90;;;;;;5091583;28;20469;-66
2021/09/29 04:40:33;;;;;;;6.63;4.57;;;13.10;99.90;;;;;;5090857;28;20074;-66
2021/09/29 04:42:59;;;;;;;8.45;4.32;;;13.10;99.90;;;;;;5091391;28;20060;-66
2021/09/29 04:45:24;;;;;;;8.88;4.25;;;13.10;99.90;;;;;;5089676;28;20468;-66
2021/09/29 04:47:50;;;;;;;5.63;3.67;;;13.10;99.90;;;;;;5089974;28;20147;-66
2021/09/29 04:50:15;;;;;;;9.50;4.15;;;13.20;99.90;;;;;;5091468;28;20423;-66
2021/09/29 04:52:42;;;;;;;7.22;3.50;;;13.20;99.90;;;;;;5089629;28;20063;-66
2021/09/29 04:55:08;;;;;;;6.40;3.42;;;13.20;99.90;;;;;;5088873;28;20063;-67
2021/09/29 04:57:34;;;;;;;5.68;3.38;;;13.20;99.90;;;;;;5089260;28;20078;-66
2021/09/29 05:00:00;;;;;;;7.15;3.55;;;13.20;99.90;;;;;;5091681;28;20040;-66
2021/09/29 05:02:27;;;;;;;4.50;3.47;;;13.20;99.90;;;;;;5091695;28;20031;-66
2021/09/29 05:04:53;;;;;;;5.05;3.40;;;13.20;99.90;;;;;;5090449;28;20024;-66
2021/09/29 05:07:20;;;;;;;5.32;3.30;;;13.20;99.90;;;;;;5092350;28;20419;-67
2021/09/29 05:09:50;;;;;;;6.05;2.90;;;13.20;99.90;;;;;;5091905;28;20421;-66
2021/09/29 05:12:26;;;;;;;8.07;3.20;;;13.20;99.90;;;;;;5091172;28;20024;-66
2021/09/29 05:14:52;;;;;;;5.72;3.42;;;13.20;99.90;;;;;;5082066;28;20362;-66
2021/09/29 05:17:18;;;;;;;7.00;3.15;;;13.10;99.90;;;;;;5087709;28;20419;-66
2021/09/29 05:19:43;;;;;;;9.88;2.95;;;13.10;99.90;;;;;;5091640;28;20032;-66
2021/09/29 05:22:09;;;;;;;9.00;3.85;;;13.10;99.90;;;;;;5091946;28;20111;-65
2021/09/29 05:24:38;;;;;;;4.57;2.95;;;13.10;99.90;;;;;;5084197;28;20790;-65
2021/09/29 05:27:04;;;;;;;6.25;3.00;;;13.10;99.90;;;;;;5082702;28;20103;-65
2021/09/29 05:29:31;;;;;;;7.53;3.33;;;13.10;99.90;;;;;;5090821;28;20126;-66
2021/09/29 05:31:57;;;;;;;3.33;2.67;;;13.10;99.90;;;;;;5092056;28;20024;-66
2021/09/29 05:34:24;;;;;;;8.35;2.67;;;13.10;99.90;;;;;;5092038;28;20100;-66
2021/09/29 05:36:50;;;;;;;6.28;3.50;;;13.10;99.90;;;;;;5090614;28;20020;-69
2021/09/29 05:39:16;;;;;;;5.82;2.70;;;13.10;99.90;;;;;;5092163;28;20047;-70
2021/09/29 05:41:42;;;;;;;6.78;2.67;;;13.10;99.90;;;;;;5090786;28;20066;-66
2021/09/29 05:44:08;;;;;;;4.82;2.75;;;13.10;99.90;;;;;;5091983;28;20028;-66
2021/09/29 05:46:35;;;;;;;7.63;2.78;;;13.10;99.90;;;;;;5090759;28;20043;-66
2021/09/29 05:49:01;;;;;;;6.50;3.30;;;13.10;99.90;;;;;;5091471;28;20397;-66
2021/09/29 05:51:26;;;;;;;6.40;3.03;;;13.00;99.90;;;;;;5091740;28;20367;-67
2021/09/29 05:53:52;;;;;;;9.30;3.95;;;13.00;99.90;;;;;;5091148;28;20092;-69
2021/09/29 05:56:18;;;;;;;7.45;3.17;;;13.00;99.90;;;;;;5090105;28;20038;-69
2021/09/29 05:58:44;;;;;;;5.60;3.17;;;13.00;99.90;;;;;;5090494;28;20465;-67
2021/09/29 06:01:10;;;;;;;7.82;2.92;;;13.00;99.90;;;;;;5091077;28;20474;-67
2021/09/29 06:03:35;;;;;;;7.43;2.55;;;13.10;99.90;;;;;;5089811;28;20024;-66
2021/09/29 06:06:01;;;;;;;4.78;2.47;;;13.10;99.90;;;;;;5091259;28;20478;-67
2021/09/29 06:08:27;;;;;;;7.45;3.28;;;13.10;99.90;;;;;;5084732;28;20453;-67
2021/09/29 06:10:52;;;;;;;7.03;2.80;;;13.20;99.90;;;;;;5086112;28;20386;-67
2021/09/29 06:13:19;;;;;;;14.48;2.83;;;13.20;99.90;;;;;;5089106;28;20043;-67
2021/09/29 06:15:46;;;;;;;4.25;2.70;;;13.30;99.90;;;;;;5090455;28;20035;-67
2021/09/29 06:18:13;;;;;;;4.07;2.60;;;13.40;99.90;;;;;;5072782;28;20114;-67
2021/09/29 06:20:52;;;;;;;3.75;2.25;;;13.50;99.90;;;;;;5090377;28;20076;-67
2021/09/29 06:23:19;;;;;;;6.03;2.22;;;13.60;99.90;;;;;;5091141;28;20020;-67
2021/09/29 06:25:45;;;;;;;3.47;2.22;;;13.90;99.90;;;;;;5090497;28;20088;-67
2021/09/29 06:28:12;;;;;;;4.60;2.30;;;14.00;99.90;;;;;;5090813;28;20032;-67
2021/09/29 06:30:38;;;;;;;6.45;2.17;;;14.20;99.90;;;;;;5089820;28;20036;-69
2021/09/29 06:33:04;;;;;;;5.40;2.30;;;14.40;99.90;;;;;;5090939;28;20397;-67
2021/09/29 06:35:30;;;;;;;4.38;1.92;;;14.50;99.90;;;;;;5091300;28;20025;-67
2021/09/29 06:38:00;;;;;;;4.57;2.20;;;14.60;99.90;;;;;;5089487;28;20023;-67
2021/09/29 06:40:27;;;;;;;8.57;2.55;;;14.60;99.90;;;;;;5091436;28;20051;-67
2021/09/29 06:42:53;;;;;;;6.00;2.88;;;14.60;99.90;;;;;;5090118;28;20374;-67
2021/09/29 06:45:20;;;;;;;5.20;2.13;;;14.50;99.90;;;;;;5091078;28;20024;-67
2021/09/29 06:47:48;;;;;;;5.57;2.40;;;14.40;99.90;;;;;;5090287;28;20376;-67
2021/09/29 06:50:16;;;;;;;4.78;2.22;;;14.40;99.90;;;;;;5090482;28;20032;-68
2021/09/29 06:52:42;;;;;;;5.15;2.53;;;14.40;99.90;;;;;;5089943;28;20034;-67
2021/09/29 06:55:08;;;;;;;5.10;2.58;;;14.40;99.90;;;;;;5090644;28;20020;-67
2021/09/29 06:57:34;;;;;;;5.15;2.70;;;14.40;99.90;;;;;;5079627;28;20033;-67
2021/09/29 07:00:00;;;;;;;5.00;2.70;;;14.50;99.90;;;;;;5079302;28;20047;-67
2021/09/29 07:02:26;;;;;;;4.65;2.80;;;14.50;99.90;;;;;;5090959;28;20024;-67
2021/09/29 07:04:52;;;;;;;12.13;2.60;;;14.50;99.90;;;;;;5090063;28;20484;-67
2021/09/29 07:07:18;;;;;;;3.22;2.30;;;14.60;99.90;;;;;;5086056;28;20118;-67
2021/09/29 07:09:43;;;;;;;6.05;2.25;;;14.70;99.90;;;;;;5070228;28;20123;-67
2021/09/29 07:12:09;;;;;;;2.92;2.03;;;14.80;99.90;;;;;;5087439;28;20035;-67
2021/09/29 07:14:35;;;;;;;4.50;1.80;;;14.90;99.90;;;;;;5091189;28;20028;-67
2021/09/29 07:17:01;;;;;;;11.57;1.95;;;14.90;99.90;;;;;;5090169;28;20036;-68
2021/09/29 07:19:28;;;;;;;3.60;1.58;;;15.00;99.90;;;;;;5091183;28;20056;-69
2021/09/29 07:21:54;;;;;;;6.50;1.92;;;15.20;99.90;;;;;;5092413;28;20048;-67
2021/09/29 07:24:20;;;;;;;4.07;1.75;;;15.30;99.90;;;;;;5093952;28;20139;-68
2021/09/29 07:26:47;;;;;;;7.28;1.58;;;15.30;99.90;;;;;;5093441;28;20101;-67
2021/09/29 07:29:12;;;;;;;5.38;1.63;;;15.40;99.90;;;;;;5094185;28;20414;-67
2021/09/29 07:31:44;;;;;;;4.63;2.53;;;15.40;99.90;;;;;;5093763;28;20105;-67
2021/09/29 07:34:11;;;;;;;6.20;1.80;;;15.50;99.90;;;;;;5084624;28;20020;-67
2021/09/29 07:36:39;;;;;;;6.20;1.80;;;15.60;99.90;;;;;;5081509;28;20485;-67
2021/09/29 07:39:06;;;;;;;4.03;1.50;;;15.70;99.90;;;;;;5093809;28;20028;-68
2021/09/29 07:41:32;;;;;;;6.45;1.77;;;15.70;99.90;;;;;;5094116;28;20044;-68
2021/09/29 07:43:58;;;;;;;3.17;1.40;;;15.80;99.90;;;;;;5093695;28;20528;-67
2021/09/29 07:46:24;;;;;;;2.17;1.58;;;15.80;99.90;;;;;;5093448;28;20043;-67
2021/09/29 07:48:50;;;;;;;2.35;1.38;;;16.00;99.90;;;;;;5092834;28;20032;-67
2021/09/29 07:51:16;;;;;;;3.72;1.50;;;16.20;99.90;;;;;;5094367;28;20376;-67
2021/09/29 07:53:42;;;;;;;3.60;1.30;;;16.40;99.80;;;;;;5093226;28;20459;-67
2021/09/29 07:56:09;;;;;;;3.92;1.30;;;16.50;99.40;;;;;;5093809;28;20028;-67
2021/09/29 07:58:35;;;;;;;6.47;1.35;;;16.70;98.70;;;;;;5093779;28;20495;-67
2021/09/29 08:01:01;;;;;;;3.28;1.30;;;16.70;98.30;;;;;;5093018;28;20020;-67
2021/09/29 08:03:28;;;;;;;2.33;1.00;;;16.70;98.20;;;;;;5093678;28;20118;-68
2021/09/29 08:05:57;;;;;;;5.70;1.52;;;16.70;98.20;;;;;;5092877;28;20027;-67
2021/09/29 08:08:23;;;;;;;5.18;1.45;;;16.70;97.90;;;;;;5093613;28;20028;-68
2021/09/29 08:10:49;;;;;;;4.57;1.30;;;16.80;97.90;;;;;;5092677;28;20126;-67
2021/09/29 08:13:15;;;;;;;1.90;1.00;;;16.80;97.90;;;;;;5093602;28;20036;-67
2021/09/29 08:15:43;;;;;;;3.42;1.25;;;16.80;97.50;;;;;;5093247;28;20039;-66
2021/09/29 08:18:09;;;;;;;5.63;1.45;;;16.90;97.20;;;;;;5074891;28;20025;-67
2021/09/29 08:20:37;;;;;;;5.78;0.73;;;16.90;96.60;;;;;;5093544;28;20028;-67
2021/09/29 08:23:14;;;;;;;6.68;1.00;;;16.90;96.30;;;;;;5092619;28;20388;-67
2021/09/29 08:43:44;;;;;;;3.78;0.90;;;17.20;95.00;;;;;;5092744;28;20055;-67
2021/09/29 08:46:16;;;;;;;3.47;1.00;;;17.20;94.40;;;;;;5092645;28;20081;-67
2021/09/29 09:15:52;;;;;;;4.82;1.00;;;18.30;91.00;;;;;;5072373;28;20036;-67
2021/09/29 09:18:19;;;;;;;4.18;0.90;;;18.40;90.40;;;;;;5072022;28;20021;-67
2021/09/29 09:20:50;;;;;;;4.40;1.00;;;18.50;90.00;;;;;;5082764;28;20039;-66
2021/09/29 09:23:16;;;;;;;3.53;0.88;;;18.40;89.20;;;;;;5092149;28;20081;-67
2021/09/29 09:25:45;;;;;;;11.23;1.30;;;18.40;90.00;;;;;;5091787;28;20051;-67
2021/09/29 09:28:28;;;;;;;3.90;0.90;;;18.30;89.40;;;;;;5092048;28;20074;-67
2021/09/29 09:31:07;;;;;;;7.05;0.95;;;18.30;90.00;;;;;;5090943;28;20035;-67
2021/09/29 09:33:33;;;;;;;4.57;1.10;;;18.30;90.20;;;;;;5079923;28;20492;-68
2021/09/29 09:35:58;;;;;;;3.08;0.95;;;18.40;88.90;;;;;;5091126;28;20024;-67
2021/09/29 09:38:26;;;;;;;7.53;1.15;;;18.30;89.80;;;;;;5091746;28;20347;-67
2021/09/29 09:40:58;;;;;;;7.88;1.75;;;18.40;90.00;;;;;;5090582;28;20058;-67
2021/09/29 09:43:29;;;;;;;4.30;0.98;;;18.50;88.80;;;;;;5092015;28;20036;-67
2021/09/29 09:45:56;;;;;;;9.00;1.10;;;18.70;88.60;;;;;;5070861;28;20059;-67
2021/09/29 09:48:28;;;;;;;7.88;1.52;;;18.80;86.20;;;;;;5070843;28;20119;-67
2021/09/29 09:51:02;;;;;;;6.22;1.42;;;18.90;85.60;;;;;;5080819;28;20040;-67
2021/09/29 09:53:28;;;;;;;2.65;0.90;;;18.90;84.90;;;;;;5092049;28;20097;-67
2021/09/29 09:55:54;;;;;;;6.80;1.65;;;19.00;84.60;;;;;;5090552;28;20051;-67
2021/09/29 09:58:20;;;;;;;2.50;0.70;;;19.00;84.70;;;;;;5091218;28;20465;-67
2021/09/29 10:00:46;;;;;;;2.78;1.00;;;19.00;84.30;;;;;;5091207;28;20062;-66
2021/09/29 10:03:12;;;;;;;4.90;0.82;;;19.00;83.80;;;;;;5091707;28;20035;-67
2021/09/29 10:05:41;;;;;;;3.17;0.90;;;19.00;84.10;;;;;;5091179;28;20031;-68
2021/09/29 10:08:09;;;;;;;9.15;1.95;;;19.00;83.90;;;;;;5090955;28;20032;-67
2021/09/29 10:27:37;;;;;;;3.38;0.85;;;19.80;79.30;;;;;;5091363;28;20028;-67
2021/09/29 10:30:09;;;;;;;4.53;1.00;;;19.90;76.20;;;;;;5070576;28;20029;-67
2021/09/29 10:32:44;;;;;;;5.22;0.77;;;19.80;76.20;;;;;;5070782;28;20032;-67
2021/09/29 10:43:43;;;;;;;1.60;0.80;;;19.70;74.50;;;;;;5091050;28;20051;-67
2021/09/29 10:46:35;;;;;;;2.25;0.85;;;19.50;75.00;;;;;;5077507;28;20556;-67
2021/09/29 11:32:32;;;;;;;4.75;0.82;;;20.50;72.50;;;;;;5093768;28;20063;-66
2021/09/29 11:35:02;;;;;;;3.58;0.73;;;20.70;72.10;;;;;;5093493;28;20028;-66
2021/09/29 12:10:24;;;;;;;3.42;1.00;;;21.80;64.90;;;;;;4933465;29;20484;-67
2021/09/29 12:12:52;;;;;;;1.83;0.57;;;21.70;64.50;;;;;;4934816;29;20490;-68
2021/09/29 12:15:17;;;;;;;3.42;0.80;;;21.80;64.50;;;;;;4933354;29;20148;-68
2021/09/29 12:17:45;;;;;;;3.42;0.60;;;21.90;64.60;;;;;;4934334;29;20549;-68
2021/09/29 12:20:29;;;;;;;1.17;0.50;;;21.90;63.50;;;;;;4933866;29;20437;-68
2021/09/29 12:23:00;;;;;;;3.25;0.85;;;22.00;63.40;;;;;;4935885;29;20056;-68
2021/09/29 12:25:31;;;;;;;2.25;0.98;;;22.10;63.00;;;;;;4926772;29;20122;-68
2021/09/29 12:36:34;;;;;;;2.92;0.95;;;23.10;60.40;;;;;;4933066;29;20028;-68
2021/09/29 12:39:01;;;;;;;3.30;0.70;;;22.80;61.30;;;;;;4933941;29;20047;-68
2021/09/29 12:41:28;;;;;;;4.63;0.85;;;22.70;61.00;;;;;;4932717;29;20045;-68
2021/09/29 12:44:05;;;;;;;7.88;0.98;;;22.30;61.30;;;;;;4976078;28;20040;-68
2021/09/29 12:46:31;;;;;;;5.80;0.90;;;22.00;62.90;;;;;;5052179;28;20087;-68
2021/09/29 12:48:56;;;;;;;0.75;0.40;;;21.60;63.00;;;;;;5053280;28;20033;-68
2021/09/29 12:51:24;;;;;;;1.55;0.55;;;21.30;63.60;;;;;;5052194;28;20032;-68
2021/09/29 12:53:57;;;;;;;2.40;0.68;;;21.40;63.90;;;;;;5053202;28;20017;-68
2021/09/29 12:56:23;;;;;;;2.63;0.90;;;21.60;63.30;;;;;;5051679;28;20509;-68
2021/09/29 12:58:49;;;;;;;16.90;1.30;;;21.50;63.90;;;;;;5052597;28;20033;-67
2021/09/29 13:01:16;;;;;;;1.75;0.73;;;21.40;63.80;;;;;;5036331;28;20033;-68
2021/09/29 13:03:42;;;;;;;2.58;1.00;;;21.20;64.40;;;;;;5032838;28;20021;-68
2021/09/29 13:06:10;;;;;;;2.92;0.85;;;21.00;65.30;;;;;;5033854;28;20057;-68
2021/09/29 13:08:36;;;;;;;3.92;0.95;;;20.80;66.10;;;;;;5051910;28;20078;-68
2021/09/29 13:11:01;;;;;;;10.25;0.85;;;20.70;66.40;;;;;;5052363;28;20064;-68
2021/09/29 13:13:30;;;;;;;5.57;0.95;;;20.90;66.60;;;;;;5051875;28;20096;-68
2021/09/29 13:15:59;;;;;;;2.10;0.75;;;21.10;65.50;;;;;;5052770;28;20060;-68
2021/09/29 13:18:39;;;;;;;2.60;0.90;;;21.10;65.80;;;;;;5031274;28;20377;-68
2021/09/29 13:21:10;;;;;;;2.47;0.85;;;21.40;65.70;;;;;;5041672;28;20539;-68
2021/09/29 13:23:49;;;;;;;4.28;1.50;;;22.00;65.40;;;;;;5051233;28;20078;-68
2021/09/29 13:37:13;;;;;;;4.95;1.02;;;21.10;66.80;;;;;;5032454;28;20505;-71
2021/09/29 13:39:39;;;;;;;3.10;0.80;;;20.50;69.50;;;;;;5031394;28;20045;-69
2021/09/29 13:42:05;;;;;;;1.38;0.50;;;19.80;73.60;;;;;;5031583;28;20086;-70
2021/09/29 13:44:31;;;;;;;3.67;0.80;;;19.20;77.90;;;;;;5031279;28;20151;-69
2021/09/29 13:46:57;;;;;;;1.63;0.77;;;18.60;83.70;;;;;;5046577;28;20037;-69
2021/09/29 13:49:23;;;;;;;2.33;0.77;;;18.00;91.00;;;;;;5043003;28;20064;-68
2021/09/29 13:51:51;;;;;;;1.92;1.08;;;17.50;96.40;;;;;;5031927;28;20100;-68
2021/09/29 13:54:22;;;;;;;1.52;0.70;;;17.00;99.90;;;;;;5039872;28;20040;-67
2021/09/29 13:57:09;;;;;;;4.03;0.77;;;16.60;99.90;;;;;;5051710;28;20033;-68
2021/09/29 14:02:27;;;;;;;4.10;0.90;;;16.20;99.90;;;;;;5051720;28;20036;-69
2021/09/29 14:29:35;;;;;;;1.02;0.32;;;15.90;99.90;;;;;;5037526;28;20110;-68
2021/09/29 14:34:29;;;;;;;0.60;0.25;;;15.70;99.90;;;;;;5053922;28;20377;-68
2021/09/29 14:36:55;;;;;;;1.65;0.50;;;15.60;99.90;;;;;;5043890;28;20032;-68
2021/09/29 14:39:22;;;;;;;1.20;0.40;;;15.50;99.90;;;;;;5038521;28;20036;-67
2021/09/29 14:41:47;;;;;;;2.08;0.68;;;15.10;99.90;;;;;;5044778;28;20366;-69
2021/09/29 14:44:14;;;;;;;0.20;0.20;;;14.60;99.90;;;;;;5045424;28;20040;-69
2021/09/29 14:46:39;;;;;;;1.20;0.30;;;14.20;99.90;;;;;;5034536;28;20025;-69
2021/09/29 14:49:05;;;;;;;2.72;0.50;;;13.80;99.90;;;;;;5035306;28;20087;-68
2021/09/29 14:51:31;;;;;;;0.20;0.20;;;13.50;99.90;;;;;;5034787;28;20079;-68
2021/09/29 14:53:59;;;;;;;2.00;0.22;;;13.40;99.90;;;;;;5041742;28;20472;-69
2021/09/29 14:56:26;;;;;;;1.73;0.55;;;13.30;99.90;;;;;;5054289;28;20073;-68
2021/09/29 14:58:52;;;;;;;0.47;0.40;;;13.20;99.90;;;;;;5054687;28;20029;-69
2021/09/29 15:01:18;;;;;;;1.30;0.45;;;13.20;99.90;;;;;;5054904;28;20040;-68
2021/09/29 15:03:47;;;;;;;0.50;0.40;;;13.10;99.90;;;;;;5049597;28;20032;-69
2021/09/29 15:06:13;;;;;;;1.42;0.30;;;13.10;99.90;;;;;;5034721;28;20081;-69
2021/09/29 15:08:42;;;;;;;2.17;0.30;;;13.10;99.90;;;;;;5039857;28;20029;-68
2021/09/29 15:11:12;;;;;;;2.25;0.50;;;13.10;99.90;;;;;;5052730;28;20516;-69
2021/09/29 15:13:56;;;;;;;0.68;0.50;;;13.00;99.90;;;;;;5037316;28;20021;-68
2021/09/29 15:19:07;;;;;;;1.92;0.20;;;13.00;99.90;;;;;;5057846;28;20112;-69
2021/09/29 15:21:57;;;;;;;1.08;0.30;;;12.90;99.90;;;;;;5074213;28;20479;-70
2021/09/29 15:25:06;;;;;;;1.48;0.50;;;12.90;99.90;;;;;;5063426;28;20120;-68
2021/09/29 15:48:44;;;;;;;0.52;0.40;;;13.00;99.90;;;;;;5053449;28;20409;-69
2021/09/29 15:51:19;;;;;;;1.85;0.32;;;13.00;99.90;;;;;;5054173;28;20037;-68
2021/09/29 15:56:22;;;;;;;0.95;0.17;;;13.10;99.90;;;;;;5051805;28;20028;-68
2021/09/29 16:01:58;;;;;;;0.93;0.30;;;13.10;99.90;;;;;;5034029;28;20521;-69
2021/09/29 16:06:37;;;;;;;2.05;0.65;;;13.30;99.90;;;;;;5053178;28;20141;-68
2021/09/29 16:17:12;;;;;;;1.15;0.30;;;13.40;99.90;;;;;;5037540;28;20048;-69
2021/09/29 16:37:45;;;;;;;1.77;0.70;;;13.20;99.90;;;;;;5052346;28;21039;-68
2021/09/29 16:40:12;;;;;;;0.63;0.52;;;13.30;99.90;;;;;;5053443;28;20036;-70
2021/09/29 16:42:38;;;;;;;1.88;0.40;;;13.30;99.90;;;;;;5052239;28;20104;-74
2021/09/29 16:45:09;;;;;;;2.85;0.70;;;13.20;99.90;;;;;;5047791;28;20514;-70
2021/09/29 16:47:35;;;;;;;1.30;0.77;;;13.20;99.90;;;;;;5032482;28;20037;-69
2021/09/29 16:50:01;;;;;;;1.58;0.77;;;13.20;99.90;;;;;;5043850;28;20112;-69
2021/09/29 16:55:03;;;;;;;1.05;0.52;;;13.20;99.90;;;;;;5051253;28;20029;-70
2021/09/29 16:57:34;;;;;;;0.60;0.40;;;13.20;99.90;;;;;;5052282;28;20033;-66
2021/09/29 17:02:28;;;;;;;2.08;0.50;;;13.20;99.90;;;;;;5052250;28;20343;-68
2021/09/29 17:04:54;;;;;;;1.60;0.50;;;13.20;99.90;;;;;;5044553;28;20032;-69
2021/09/29 17:07:20;;;;;;;0.63;0.28;;;13.10;99.90;;;;;;5032557;28;20076;-69
2021/09/29 17:09:45;;;;;;;4.22;0.90;;;13.10;99.90;;;;;;5032053;28;20117;-69
2021/09/29 17:12:12;;;;;;;2.25;0.70;;;13.10;99.90;;;;;;5032756;28;20053;-73